Time;durP1;ratioP1;P1;durP2;ratioP2;P2;SDS_P1;SDS_P2;PMS_P1;PMS_P2;Temp;Humidity;BMP_temperature;BMP_pressure;BME280_temperature;BME280_humidity;BME280_pressure;Samples;Min_cycle;Max_cycle;Signal;HPM_P1;HPM_P2
2022/12/08 00:01:16;;;;;;;5.78;3.50;;;6.30;61.60;;;;;;5018423;28;20124;-76
2022/12/08 00:03:42;;;;;;;5.53;3.67;;;6.40;61.60;;;;;;5037442;28;20037;-77
2022/12/08 00:09:20;;;;;;;5.97;3.38;;;6.40;61.70;;;;;;5043168;28;20037;-72
2022/12/08 00:11:57;;;;;;;6.80;4.03;;;6.40;61.70;;;;;;5043235;28;20033;-72
2022/12/08 00:14:38;;;;;;;5.85;4.15;;;6.40;61.20;;;;;;5042890;28;20048;-72
2022/12/08 00:17:06;;;;;;;9.15;4.60;;;6.30;59.80;;;;;;5042686;28;20056;-72
2022/12/08 00:19:32;;;;;;;8.68;4.07;;;6.30;58.70;;;;;;5041775;28;20254;-72
2022/12/08 00:21:58;;;;;;;7.68;5.10;;;6.30;58.10;;;;;;5043200;28;20036;-72
2022/12/08 00:24:30;;;;;;;7.47;5.20;;;6.20;57.80;;;;;;5042179;28;20037;-72
2022/12/08 00:26:56;;;;;;;9.60;5.50;;;6.20;57.50;;;;;;5042372;28;20083;-71
2022/12/08 00:29:22;;;;;;;8.77;4.75;;;6.10;57.20;;;;;;5041404;28;20041;-71
2022/12/08 00:31:49;;;;;;;9.30;5.07;;;6.10;57.00;;;;;;5043082;28;20423;-71
2022/12/08 00:34:15;;;;;;;7.70;5.30;;;6.10;56.80;;;;;;5042839;28;20124;-71
2022/12/08 00:36:42;;;;;;;9.40;5.25;;;6.00;56.70;;;;;;5042452;28;20042;-71
2022/12/08 00:39:08;;;;;;;7.53;5.10;;;6.00;56.70;;;;;;5043086;28;20033;-71
2022/12/08 00:44:18;;;;;;;6.93;4.90;;;5.90;57.00;;;;;;5037856;28;20029;-71
2022/12/08 00:46:46;;;;;;;8.73;5.45;;;5.90;57.00;;;;;;5041556;28;20029;-71
2022/12/08 00:49:12;;;;;;;7.88;4.85;;;5.80;57.10;;;;;;5042695;28;20079;-71
2022/12/08 00:51:38;;;;;;;8.00;5.03;;;5.80;57.10;;;;;;5042898;28;20041;-71
2022/12/08 00:54:05;;;;;;;8.73;5.32;;;5.80;57.20;;;;;;5043123;28;20041;-71
2022/12/08 00:56:32;;;;;;;8.20;5.32;;;5.80;57.20;;;;;;5042454;28;20423;-71
2022/12/08 00:58:58;;;;;;;6.82;4.82;;;5.70;57.10;;;;;;5043295;28;20040;-71
2022/12/08 01:01:25;;;;;;;7.55;5.10;;;5.70;57.30;;;;;;5044362;28;20035;-70
2022/12/08 01:03:51;;;;;;;8.20;4.70;;;5.70;57.30;;;;;;5044374;28;20037;-71
2022/12/08 01:06:17;;;;;;;7.60;5.40;;;5.70;57.00;;;;;;5044563;28;20051;-71
2022/12/08 01:08:43;;;;;;;7.55;4.93;;;5.70;56.90;;;;;;5044158;28;20041;-71
2022/12/08 01:11:13;;;;;;;7.45;4.60;;;5.60;57.00;;;;;;5045411;28;20037;-71
2022/12/08 01:13:40;;;;;;;6.72;4.45;;;5.70;57.40;;;;;;5044337;28;20028;-71
2022/12/08 01:16:06;;;;;;;5.75;4.20;;;5.60;57.10;;;;;;5046111;28;20045;-72
2022/12/08 01:18:33;;;;;;;6.13;4.43;;;5.60;56.90;;;;;;5042556;28;20041;-72
2022/12/08 01:21:06;;;;;;;7.25;4.13;;;5.60;56.90;;;;;;5046137;28;20423;-71
2022/12/08 01:23:33;;;;;;;8.43;4.32;;;5.60;56.70;;;;;;5045338;28;20451;-71
2022/12/08 01:26:06;;;;;;;7.05;4.40;;;5.50;56.50;;;;;;5044910;28;20056;-72
2022/12/08 01:28:33;;;;;;;9.07;4.05;;;5.50;56.20;;;;;;5044937;28;20033;-72
2022/12/08 01:31:00;;;;;;;7.95;4.35;;;5.50;56.20;;;;;;5046139;28;20048;-72
2022/12/08 01:33:26;;;;;;;6.10;3.90;;;5.50;56.30;;;;;;5045522;28;20565;-72
2022/12/08 01:35:54;;;;;;;7.38;4.10;;;5.40;56.10;;;;;;5044122;28;20136;-71
2022/12/08 01:38:20;;;;;;;7.40;4.03;;;5.40;56.20;;;;;;5046636;28;20048;-72
2022/12/08 01:40:47;;;;;;;7.32;4.07;;;5.40;56.50;;;;;;5045200;28;20064;-71
2022/12/08 01:43:18;;;;;;;7.20;4.70;;;5.40;56.70;;;;;;5046499;28;20436;-71
2022/12/08 01:45:44;;;;;;;7.35;3.92;;;5.40;56.90;;;;;;5041032;28;20539;-71
2022/12/08 01:48:26;;;;;;;6.15;3.80;;;5.40;56.90;;;;;;5044827;28;20836;-71
2022/12/08 01:50:54;;;;;;;6.18;4.07;;;5.30;56.90;;;;;;5044498;28;20044;-71
2022/12/08 01:53:28;;;;;;;7.28;3.70;;;5.30;56.80;;;;;;5044367;28;20033;-71
2022/12/08 01:56:04;;;;;;;6.68;3.72;;;5.30;57.20;;;;;;5045266;28;20064;-71
2022/12/08 01:58:45;;;;;;;5.43;4.22;;;5.30;57.10;;;;;;5045592;28;20024;-71
2022/12/08 02:01:11;;;;;;;5.70;3.80;;;5.30;57.10;;;;;;5044802;28;20483;-71
2022/12/08 02:03:46;;;;;;;6.05;4.53;;;5.30;57.20;;;;;;5045327;28;20120;-71
2022/12/08 02:06:14;;;;;;;4.90;3.90;;;5.30;57.10;;;;;;5027024;28;20337;-71
2022/12/08 02:08:41;;;;;;;8.15;4.53;;;5.30;57.20;;;;;;5045187;28;20128;-71
2022/12/08 02:11:11;;;;;;;5.60;3.90;;;5.20;57.30;;;;;;5044607;28;20044;-72
2022/12/08 02:13:38;;;;;;;4.35;3.42;;;5.30;57.60;;;;;;5044874;28;20036;-71
2022/12/08 02:16:40;;;;;;;5.40;3.90;;;5.20;57.30;;;;;;5044959;28;20797;-71
2022/12/08 02:19:43;;;;;;;5.85;3.65;;;5.20;57.60;;;;;;5024879;28;20030;-72
2022/12/08 02:22:31;;;;;;;6.95;4.05;;;5.30;57.60;;;;;;5044166;28;20404;-71
2022/12/08 02:25:02;;;;;;;8.15;3.78;;;5.30;57.80;;;;;;5044719;28;20118;-71
2022/12/08 02:28:19;;;;;;;6.20;4.28;;;5.20;57.80;;;;;;5044515;28;21316;-71
2022/12/08 02:31:22;;;;;;;6.82;3.78;;;5.20;57.80;;;;;;4980019;28;20034;-71
2022/12/08 02:33:53;;;;;;;5.05;3.67;;;5.20;57.70;;;;;;4978288;28;20130;-71
2022/12/08 02:36:28;;;;;;;6.18;3.33;;;5.20;57.70;;;;;;4980740;28;20063;-71
2022/12/08 02:39:12;;;;;;;6.47;3.95;;;5.20;57.60;;;;;;4981980;28;20041;-72
2022/12/08 02:42:01;;;;;;;6.85;4.10;;;5.20;57.70;;;;;;4965645;28;20162;-72
2022/12/08 02:44:51;;;;;;;5.70;3.90;;;5.20;58.20;;;;;;4979519;28;20441;-72
2022/12/08 02:47:19;;;;;;;7.50;4.30;;;5.20;57.60;;;;;;4964365;28;20069;-72
2022/12/08 02:49:46;;;;;;;7.75;4.28;;;5.20;57.60;;;;;;4979649;28;20130;-72
2022/12/08 02:52:12;;;;;;;6.88;4.25;;;5.20;57.60;;;;;;4979445;28;20066;-72
2022/12/08 02:54:45;;;;;;;7.50;4.07;;;5.20;57.60;;;;;;4980756;28;20045;-70
2022/12/08 02:57:35;;;;;;;8.07;4.40;;;5.20;57.60;;;;;;4978030;28;20042;-71
2022/12/08 03:00:19;;;;;;;6.57;4.03;;;5.20;57.50;;;;;;4979172;28;20054;-71
2022/12/08 03:03:11;;;;;;;6.22;4.15;;;5.20;57.70;;;;;;5044603;28;20037;-71
2022/12/08 03:05:56;;;;;;;6.38;4.13;;;5.20;57.80;;;;;;5044111;28;20498;-69
2022/12/08 03:08:48;;;;;;;5.88;3.97;;;5.20;57.90;;;;;;5044388;28;20044;-71
2022/12/08 03:11:23;;;;;;;8.40;4.15;;;5.20;57.70;;;;;;5044116;28;20084;-71
2022/12/08 03:13:55;;;;;;;5.47;3.80;;;5.20;57.60;;;;;;5044096;28;20071;-71
2022/12/08 03:16:31;;;;;;;6.53;3.72;;;5.20;57.60;;;;;;5044165;28;20287;-70
2022/12/08 03:19:17;;;;;;;4.78;3.88;;;5.20;57.70;;;;;;5043086;28;20546;-71
2022/12/08 03:21:45;;;;;;;5.80;3.45;;;5.10;57.50;;;;;;5043883;28;20055;-71
2022/12/08 03:24:14;;;;;;;5.57;3.50;;;5.10;57.50;;;;;;5043207;28;20036;-71
2022/12/08 03:26:49;;;;;;;8.02;3.92;;;5.10;57.60;;;;;;5043241;28;20282;-74
2022/12/08 03:29:15;;;;;;;6.43;4.23;;;5.10;57.60;;;;;;5043728;28;20033;-73
2022/12/08 03:31:49;;;;;;;7.20;4.13;;;5.10;57.40;;;;;;5043401;28;20311;-75
2022/12/08 03:34:17;;;;;;;6.65;4.00;;;5.10;57.30;;;;;;5042765;28;20025;-75
2022/12/08 03:36:44;;;;;;;6.05;3.65;;;5.10;57.50;;;;;;5040360;28;20471;-76
2022/12/08 03:39:10;;;;;;;6.57;3.70;;;5.10;57.60;;;;;;5040109;28;20041;-75
2022/12/08 03:41:36;;;;;;;6.43;3.70;;;5.10;57.40;;;;;;5042976;28;20099;-75
2022/12/08 03:44:02;;;;;;;7.25;3.80;;;5.10;57.60;;;;;;5023893;28;20086;-77
2022/12/08 03:46:30;;;;;;;5.40;3.60;;;5.10;57.50;;;;;;5041794;28;20037;-76
2022/12/08 03:48:56;;;;;;;7.07;4.05;;;5.10;57.30;;;;;;5042968;28;20037;-77
2022/12/08 03:51:23;;;;;;;8.02;4.00;;;5.10;57.30;;;;;;5042181;28;20546;-77
2022/12/08 03:53:49;;;;;;;5.82;3.95;;;5.10;57.50;;;;;;5039619;28;20068;-76
2022/12/08 03:56:23;;;;;;;5.93;3.70;;;5.10;57.60;;;;;;5025226;28;20043;-75
2022/12/08 03:58:49;;;;;;;7.65;4.07;;;5.10;57.20;;;;;;5041829;28;20526;-74
2022/12/08 04:01:15;;;;;;;5.47;3.80;;;5.10;57.00;;;;;;5042539;28;20116;-76
2022/12/08 04:03:41;;;;;;;4.50;3.33;;;5.10;57.20;;;;;;5040477;28;20123;-75
2022/12/08 04:06:07;;;;;;;6.88;3.88;;;5.10;57.20;;;;;;5037430;28;20484;-75
2022/12/08 04:08:33;;;;;;;6.22;3.80;;;5.10;57.40;;;;;;5040616;28;20061;-75
2022/12/08 04:10:59;;;;;;;7.78;4.05;;;5.10;57.40;;;;;;5040666;28;20475;-77
2022/12/08 04:13:25;;;;;;;6.25;4.07;;;5.10;57.30;;;;;;5024881;28;20129;-73
2022/12/08 04:15:51;;;;;;;7.15;4.05;;;5.10;57.20;;;;;;5042190;28;20044;-72
2022/12/08 04:18:17;;;;;;;5.97;3.80;;;5.10;57.10;;;;;;5040702;28;20036;-74
2022/12/08 04:20:44;;;;;;;6.60;4.15;;;5.10;56.90;;;;;;5040432;28;20140;-72
2022/12/08 04:23:11;;;;;;;7.43;3.90;;;5.10;56.80;;;;;;5038428;28;20043;-72
2022/12/08 04:25:37;;;;;;;8.05;4.25;;;5.10;56.80;;;;;;5039623;28;20056;-72
2022/12/08 04:28:04;;;;;;;6.00;3.88;;;5.10;56.80;;;;;;5039560;28;20647;-72
2022/12/08 04:30:30;;;;;;;9.15;4.55;;;5.10;57.00;;;;;;5039761;28;20037;-70
2022/12/08 04:32:56;;;;;;;7.07;3.83;;;5.10;57.20;;;;;;5040405;28;20034;-72
2022/12/08 04:35:22;;;;;;;7.88;4.25;;;5.10;57.50;;;;;;5042185;28;20090;-71
2022/12/08 04:37:48;;;;;;;8.10;4.18;;;5.10;57.70;;;;;;5044225;28;20033;-73
2022/12/08 04:40:14;;;;;;;7.97;4.13;;;5.10;57.90;;;;;;5044638;28;20108;-71
2022/12/08 04:42:40;;;;;;;6.65;3.88;;;5.10;58.10;;;;;;5048065;28;20547;-72
2022/12/08 04:45:06;;;;;;;7.40;3.97;;;5.10;58.90;;;;;;5046535;28;20044;-72
2022/12/08 04:47:32;;;;;;;7.65;4.30;;;5.10;58.40;;;;;;5047776;28;20029;-73
2022/12/08 04:49:58;;;;;;;6.65;3.97;;;5.10;58.50;;;;;;5045378;28;20031;-72
2022/12/08 04:52:24;;;;;;;9.25;4.38;;;5.10;58.60;;;;;;5044390;28;20021;-74
2022/12/08 04:54:50;;;;;;;7.28;3.95;;;5.10;58.70;;;;;;5045368;28;20443;-74
2022/12/08 04:57:16;;;;;;;8.20;4.18;;;5.10;59.10;;;;;;5047005;28;20040;-75
2022/12/08 04:59:42;;;;;;;7.80;4.28;;;5.10;59.00;;;;;;5045146;28;20048;-73
2022/12/08 05:02:08;;;;;;;8.55;3.60;;;5.10;59.00;;;;;;5045798;28;20033;-74
2022/12/08 05:04:34;;;;;;;8.65;4.47;;;5.10;59.00;;;;;;5045736;28;20514;-73
2022/12/08 05:07:00;;;;;;;8.15;4.53;;;5.10;58.90;;;;;;5047335;28;20036;-73
2022/12/08 05:09:27;;;;;;;6.93;4.22;;;5.10;59.00;;;;;;5045111;28;20041;-74
2022/12/08 05:11:53;;;;;;;7.97;4.32;;;5.10;59.20;;;;;;5046112;28;20411;-74
2022/12/08 05:14:18;;;;;;;7.72;4.43;;;5.10;59.30;;;;;;5029598;28;20037;-74
2022/12/08 05:16:45;;;;;;;8.52;4.40;;;5.10;59.20;;;;;;5046791;28;20040;-74
2022/12/08 05:19:12;;;;;;;7.32;3.88;;;5.10;59.50;;;;;;5028475;28;20033;-73
2022/12/08 05:21:37;;;;;;;8.48;3.78;;;5.10;59.40;;;;;;5046371;28;20033;-74
2022/12/08 05:24:04;;;;;;;9.25;4.03;;;5.10;59.60;;;;;;5046944;28;20033;-74
2022/12/08 05:26:30;;;;;;;6.80;3.92;;;5.10;59.40;;;;;;5046619;28;20192;-74
2022/12/08 05:28:56;;;;;;;6.65;3.80;;;5.00;59.30;;;;;;5044834;28;20123;-74
2022/12/08 05:31:21;;;;;;;5.82;3.45;;;5.10;59.10;;;;;;5047357;28;20040;-73
2022/12/08 05:33:49;;;;;;;6.72;3.65;;;5.10;59.10;;;;;;5045724;28;20500;-73
2022/12/08 05:36:16;;;;;;;5.28;3.67;;;5.00;59.10;;;;;;5046002;28;20055;-73
2022/12/08 05:38:42;;;;;;;6.28;3.90;;;5.10;59.30;;;;;;5046544;28;20029;-73
2022/12/08 05:41:19;;;;;;;10.70;3.90;;;5.00;59.40;;;;;;5045374;28;20569;-72
2022/12/08 05:43:46;;;;;;;6.25;3.40;;;5.10;59.40;;;;;;5046364;28;20029;-73
2022/12/08 05:46:13;;;;;;;5.07;3.50;;;5.10;59.20;;;;;;5045711;28;20076;-73
2022/12/08 05:48:39;;;;;;;6.00;3.75;;;5.00;58.70;;;;;;5046047;28;20045;-73
2022/12/08 05:51:11;;;;;;;8.98;3.72;;;5.10;58.60;;;;;;5051752;28;20037;-73
2022/12/08 05:53:37;;;;;;;6.15;3.53;;;5.00;58.40;;;;;;5051716;28;20064;-73
2022/12/08 05:56:03;;;;;;;5.00;3.17;;;5.00;58.10;;;;;;5029480;28;20520;-74
2022/12/08 05:58:29;;;;;;;5.90;3.63;;;5.00;57.90;;;;;;5049806;28;20037;-73
2022/12/08 06:00:55;;;;;;;7.53;4.00;;;5.00;57.80;;;;;;5051516;28;20041;-72
2022/12/08 06:03:21;;;;;;;7.32;3.50;;;5.10;58.40;;;;;;5049269;28;20029;-74
2022/12/08 06:05:47;;;;;;;6.88;3.55;;;5.00;57.60;;;;;;5046734;28;20041;-75
2022/12/08 06:08:13;;;;;;;6.78;3.78;;;5.00;57.50;;;;;;5048697;28;20068;-73
2022/12/08 06:10:41;;;;;;;6.75;3.78;;;5.00;57.40;;;;;;5050524;28;20083;-73
2022/12/08 06:13:07;;;;;;;7.07;3.88;;;5.00;57.40;;;;;;5051752;28;20041;-73
2022/12/08 06:15:34;;;;;;;6.80;4.10;;;5.00;57.50;;;;;;5050258;28;20059;-73
2022/12/08 06:18:00;;;;;;;7.15;3.60;;;5.00;57.30;;;;;;5051119;28;20037;-74
2022/12/08 06:20:26;;;;;;;5.97;3.65;;;5.00;57.50;;;;;;5047322;28;20580;-74
2022/12/08 06:22:53;;;;;;;8.48;3.65;;;5.10;57.40;;;;;;5051028;28;20052;-74
2022/12/08 06:25:20;;;;;;;6.72;4.20;;;5.00;57.20;;;;;;5050788;28;20112;-75
2022/12/08 06:27:45;;;;;;;6.32;3.85;;;5.00;57.20;;;;;;5050684;28;20259;-74
2022/12/08 06:30:12;;;;;;;6.53;3.83;;;5.00;57.20;;;;;;5049013;28;20504;-74
2022/12/08 06:32:38;;;;;;;6.90;4.00;;;5.10;57.10;;;;;;5045513;28;20550;-75
2022/12/08 06:35:04;;;;;;;6.72;3.60;;;5.00;57.10;;;;;;5043923;28;20037;-75
2022/12/08 06:37:30;;;;;;;5.65;3.50;;;5.10;57.00;;;;;;5046177;28;20033;-74
2022/12/08 06:39:56;;;;;;;6.75;4.07;;;5.10;57.10;;;;;;5043747;28;20515;-74
2022/12/08 06:45:07;;;;;;;5.28;3.15;;;5.00;56.50;;;;;;5044794;28;20030;-73
2022/12/08 06:47:33;;;;;;;6.43;3.60;;;5.10;56.60;;;;;;5044026;28;20090;-74
2022/12/08 06:49:59;;;;;;;7.95;3.78;;;5.10;56.70;;;;;;5045193;28;20037;-75
2022/12/08 06:52:25;;;;;;;12.25;4.47;;;5.10;56.60;;;;;;5045797;28;20031;-74
2022/12/08 06:54:51;;;;;;;8.05;3.95;;;5.10;56.60;;;;;;5042976;28;20036;-74
2022/12/08 06:57:17;;;;;;;5.60;3.55;;;5.10;56.50;;;;;;5038827;28;20040;-75
2022/12/08 06:59:43;;;;;;;6.85;3.90;;;5.10;56.50;;;;;;5044231;28;20052;-75
2022/12/08 07:02:10;;;;;;;9.13;3.83;;;5.10;56.50;;;;;;5044915;28;20814;-73
2022/12/08 07:04:36;;;;;;;7.15;3.72;;;5.10;56.50;;;;;;5044895;28;20180;-73
2022/12/08 07:07:02;;;;;;;5.25;3.25;;;5.10;56.30;;;;;;5045274;28;20655;-73
2022/12/08 07:09:28;;;;;;;5.85;3.40;;;5.10;56.10;;;;;;5043285;28;20037;-73
2022/12/08 07:11:54;;;;;;;7.00;4.20;;;5.10;56.00;;;;;;5044143;28;20167;-73
2022/12/08 07:14:23;;;;;;;9.65;4.13;;;5.10;55.80;;;;;;5043468;28;20059;-75
2022/12/08 07:16:52;;;;;;;8.70;3.72;;;5.10;55.90;;;;;;5044675;28;20391;-74
2022/12/08 07:19:18;;;;;;;6.05;3.67;;;5.10;56.30;;;;;;5039237;28;20439;-75
2022/12/08 07:21:44;;;;;;;9.20;4.18;;;5.10;56.10;;;;;;5026099;28;20029;-76
2022/12/08 07:24:10;;;;;;;6.88;4.07;;;5.10;55.90;;;;;;5044622;28;21541;-74
2022/12/08 07:26:36;;;;;;;6.38;3.60;;;5.10;54.90;;;;;;5044181;28;20048;-74
2022/12/08 07:29:03;;;;;;;7.90;3.85;;;5.10;54.30;;;;;;5044588;28;20048;-75
2022/12/08 07:31:29;;;;;;;9.23;4.00;;;5.10;53.70;;;;;;5044700;28;20036;-75
2022/12/08 07:33:56;;;;;;;6.57;3.33;;;5.10;53.40;;;;;;5043483;28;20040;-75
2022/12/08 07:36:22;;;;;;;6.82;3.90;;;5.00;53.10;;;;;;5044267;28;20040;-75
2022/12/08 07:38:49;;;;;;;7.15;3.75;;;5.00;53.00;;;;;;5044907;28;20163;-77
2022/12/08 07:41:17;;;;;;;7.47;4.18;;;5.00;53.10;;;;;;5043598;28;20028;-76
2022/12/08 07:43:43;;;;;;;6.60;3.70;;;5.00;52.90;;;;;;5043720;28;20424;-75
2022/12/08 07:46:14;;;;;;;6.43;3.28;;;5.00;52.70;;;;;;5043748;28;20538;-75
2022/12/08 07:48:41;;;;;;;6.07;3.45;;;4.90;52.70;;;;;;5039253;28;20570;-77
2022/12/08 07:51:07;;;;;;;5.82;3.33;;;5.00;53.00;;;;;;5044562;28;20040;-81
2022/12/08 07:53:33;;;;;;;7.57;4.28;;;4.90;53.00;;;;;;5044133;28;20040;-75
2022/12/08 07:55:59;;;;;;;6.10;3.80;;;4.90;53.10;;;;;;5043500;28;20423;-76
2022/12/08 07:58:26;;;;;;;7.03;3.67;;;4.90;53.10;;;;;;5044759;28;20041;-77
2022/12/08 08:00:52;;;;;;;6.53;3.45;;;4.90;53.00;;;;;;5024407;28;20029;-75
2022/12/08 08:03:18;;;;;;;8.18;3.90;;;4.80;53.00;;;;;;5026092;28;20029;-74
2022/12/08 08:05:47;;;;;;;10.82;4.47;;;4.90;54.20;;;;;;5042661;28;20122;-74
2022/12/08 08:08:12;;;;;;;5.90;3.67;;;4.90;54.40;;;;;;5042279;28;20527;-75
2022/12/08 08:10:38;;;;;;;7.65;3.85;;;4.90;55.70;;;;;;5027641;28;20064;-75
2022/12/08 08:13:04;;;;;;;8.48;4.05;;;4.90;56.60;;;;;;5048015;28;20035;-75
2022/12/08 08:15:30;;;;;;;7.68;4.20;;;5.00;57.20;;;;;;5046992;28;20041;-77
2022/12/08 08:17:56;;;;;;;9.95;3.78;;;5.00;57.10;;;;;;5046575;28;20041;-75
2022/12/08 08:20:22;;;;;;;10.65;4.10;;;5.00;57.10;;;;;;5048040;28;20067;-76
2022/12/08 08:22:49;;;;;;;10.50;3.97;;;5.10;56.90;;;;;;5029065;28;20033;-75
2022/12/08 08:25:16;;;;;;;10.15;4.38;;;5.10;56.90;;;;;;5048495;28;20033;-74
2022/12/08 08:27:44;;;;;;;22.85;4.95;;;5.10;56.70;;;;;;5048208;28;20458;-74
2022/12/08 08:30:11;;;;;;;10.70;4.18;;;5.10;56.90;;;;;;5046933;28;20542;-75
2022/12/08 08:32:37;;;;;;;9.48;4.30;;;5.10;57.20;;;;;;5047749;28;20033;-74
2022/12/08 08:35:04;;;;;;;11.40;4.47;;;5.20;57.40;;;;;;5045795;28;20591;-74
2022/12/08 08:37:30;;;;;;;14.95;4.38;;;5.20;57.60;;;;;;5047668;28;20120;-74
2022/12/08 08:39:56;;;;;;;11.77;4.00;;;5.20;57.60;;;;;;5047211;28;20136;-74
2022/12/08 08:42:22;;;;;;;12.85;4.03;;;5.20;57.70;;;;;;5046284;28;20520;-74
2022/12/08 08:44:48;;;;;;;8.60;3.95;;;5.20;57.80;;;;;;5046601;28;20143;-74
2022/12/08 08:47:14;;;;;;;12.23;4.72;;;5.30;57.90;;;;;;5046431;28;20411;-74
2022/12/08 08:49:40;;;;;;;9.00;4.30;;;5.30;58.20;;;;;;5046799;28;20029;-74
2022/12/08 08:52:06;;;;;;;11.05;4.18;;;5.30;58.20;;;;;;5028542;28;20048;-75
2022/12/08 08:54:33;;;;;;;11.98;4.47;;;5.30;58.50;;;;;;5047328;28;20032;-73
2022/12/08 08:56:59;;;;;;;14.07;4.57;;;5.30;58.40;;;;;;5058300;28;20051;-74
2022/12/08 08:59:26;;;;;;;13.77;4.70;;;5.30;58.40;;;;;;5047187;28;20045;-73
2022/12/08 09:01:53;;;;;;;10.30;4.25;;;5.30;58.50;;;;;;5045974;28;20029;-75
2022/12/08 09:04:20;;;;;;;10.73;4.38;;;5.30;58.50;;;;;;5046951;28;20036;-73
2022/12/08 09:06:47;;;;;;;6.35;4.15;;;5.30;58.50;;;;;;5047136;28;20029;-74
2022/12/08 09:09:13;;;;;;;8.32;4.30;;;5.30;58.10;;;;;;5047175;28;20029;-73
2022/12/08 09:11:39;;;;;;;10.40;3.95;;;5.30;57.80;;;;;;5045933;28;20033;-75
2022/12/08 09:14:05;;;;;;;7.00;4.15;;;5.40;57.60;;;;;;5047300;28;20537;-74
2022/12/08 09:16:32;;;;;;;7.50;3.85;;;5.40;57.60;;;;;;5047769;28;20500;-74
2022/12/08 09:18:58;;;;;;;6.25;3.60;;;5.40;57.40;;;;;;5045609;28;20506;-74
2022/12/08 09:21:25;;;;;;;10.90;3.75;;;5.40;57.30;;;;;;5049193;28;20033;-74
2022/12/08 09:23:56;;;;;;;7.07;4.03;;;5.40;57.20;;;;;;5050575;28;20431;-75
2022/12/08 09:26:24;;;;;;;6.28;4.05;;;5.40;57.70;;;;;;5049948;28;20049;-74
2022/12/08 09:28:51;;;;;;;9.00;4.57;;;5.40;57.20;;;;;;5051893;28;20072;-75
2022/12/08 09:31:18;;;;;;;7.93;3.60;;;5.40;57.10;;;;;;5052652;28;20407;-75
2022/12/08 09:33:45;;;;;;;6.30;4.30;;;5.40;57.10;;;;;;5045949;28;20040;-75
2022/12/08 09:36:11;;;;;;;7.70;4.40;;;5.40;57.10;;;;;;5043851;28;20048;-74
2022/12/08 09:38:38;;;;;;;6.80;4.20;;;5.50;56.90;;;;;;5034286;28;20072;-75
2022/12/08 09:41:15;;;;;;;6.95;3.90;;;5.50;57.00;;;;;;5051849;28;20037;-74
2022/12/08 09:44:03;;;;;;;8.00;3.78;;;5.50;57.50;;;;;;5052215;28;20029;-74
2022/12/08 09:46:32;;;;;;;8.98;4.20;;;5.50;56.90;;;;;;5051961;28;20040;-75
2022/12/08 09:49:00;;;;;;;8.05;3.97;;;5.50;57.50;;;;;;5049807;28;20037;-76
2022/12/08 09:51:34;;;;;;;9.02;4.50;;;5.50;56.70;;;;;;5046414;28;20037;-75
2022/12/08 09:54:11;;;;;;;6.97;3.55;;;5.50;56.90;;;;;;5045984;28;20033;-75
2022/12/08 09:56:38;;;;;;;6.35;4.10;;;5.50;57.40;;;;;;5029511;28;20049;-75
2022/12/08 09:59:10;;;;;;;7.50;3.85;;;5.50;57.80;;;;;;5028065;28;20427;-75
2022/12/08 10:01:40;;;;;;;7.15;4.00;;;5.50;58.50;;;;;;5045892;28;20036;-75
2022/12/08 10:04:24;;;;;;;7.13;3.58;;;5.60;58.80;;;;;;5046008;28;20052;-75
2022/12/08 10:07:14;;;;;;;8.93;4.53;;;5.60;58.90;;;;;;5045678;28;20044;-72
2022/12/08 10:10:00;;;;;;;7.07;4.03;;;5.60;59.10;;;;;;5043866;28;20033;-75
2022/12/08 10:12:46;;;;;;;7.35;3.97;;;5.70;59.20;;;;;;5044656;28;20033;-75
2022/12/08 10:16:20;;;;;;;7.25;4.28;;;5.70;59.40;;;;;;5038618;28;20035;-75
2022/12/08 10:18:56;;;;;;;9.75;4.13;;;5.70;59.50;;;;;;4981421;28;20073;-73
2022/12/08 10:21:26;;;;;;;7.45;4.55;;;5.80;59.60;;;;;;5000229;28;20124;-73
2022/12/08 10:23:57;;;;;;;8.82;4.57;;;5.80;59.70;;;;;;4997086;28;20037;-74
2022/12/08 10:26:23;;;;;;;8.00;4.90;;;5.80;59.60;;;;;;5013752;28;20505;-74
2022/12/08 10:28:50;;;;;;;10.13;4.95;;;5.90;59.30;;;;;;5000361;28;20036;-74
2022/12/08 10:31:20;;;;;;;7.45;4.78;;;5.90;59.20;;;;;;4998532;28;20496;-74
2022/12/08 10:33:51;;;;;;;7.32;4.50;;;5.90;59.40;;;;;;4997249;28;20065;-74
2022/12/08 10:36:17;;;;;;;9.23;4.35;;;5.90;59.50;;;;;;4997200;28;20038;-73
2022/12/08 10:38:43;;;;;;;6.18;4.07;;;6.00;59.70;;;;;;4986592;28;20052;-73
2022/12/08 10:41:09;;;;;;;7.90;4.28;;;6.00;59.60;;;;;;5013772;28;20088;-73
2022/12/08 10:43:55;;;;;;;6.75;4.03;;;6.00;59.20;;;;;;5000078;28;20042;-74
2022/12/08 10:46:25;;;;;;;8.15;4.28;;;6.00;59.20;;;;;;4998921;28;20088;-74
2022/12/08 10:48:55;;;;;;;7.63;4.07;;;6.00;59.10;;;;;;5007852;28;20040;-74
2022/12/08 10:51:27;;;;;;;7.88;4.60;;;6.10;59.10;;;;;;5045014;28;20040;-74
2022/12/08 10:53:53;;;;;;;6.63;4.32;;;6.10;59.10;;;;;;5043313;28;20037;-74
2022/12/08 10:56:23;;;;;;;5.80;3.78;;;6.10;58.80;;;;;;5026691;28;20044;-73
2022/12/08 10:58:48;;;;;;;12.43;4.68;;;6.10;58.80;;;;;;5026664;28;20026;-75
2022/12/08 11:01:23;;;;;;;5.85;3.85;;;6.10;58.70;;;;;;5044134;28;20031;-74
2022/12/08 11:03:51;;;;;;;6.22;3.92;;;6.20;59.00;;;;;;5044607;28;20037;-75
2022/12/08 11:06:25;;;;;;;7.07;4.13;;;6.20;58.90;;;;;;5043243;28;20040;-75
2022/12/08 11:09:00;;;;;;;7.75;4.55;;;6.20;58.80;;;;;;5023461;28;20150;-75
2022/12/08 11:11:47;;;;;;;9.00;4.50;;;6.20;58.50;;;;;;5044896;28;20033;-75
2022/12/08 11:14:52;;;;;;;6.25;4.03;;;6.20;58.20;;;;;;5039836;28;20037;-76
2022/12/08 11:17:21;;;;;;;7.97;4.75;;;6.20;58.10;;;;;;5043749;28;20423;-74
2022/12/08 11:20:02;;;;;;;7.95;4.45;;;6.20;57.90;;;;;;5042203;28;20033;-72
2022/12/08 11:22:36;;;;;;;8.13;4.30;;;6.20;57.70;;;;;;5026945;28;20252;-76
2022/12/08 11:25:11;;;;;;;6.88;4.53;;;6.20;57.50;;;;;;5022530;28;20064;-74
2022/12/08 11:27:43;;;;;;;9.17;4.60;;;6.20;57.20;;;;;;5043846;28;20180;-76
2022/12/08 11:30:24;;;;;;;7.55;4.63;;;6.20;57.20;;;;;;5043489;28;20283;-74
2022/12/08 11:33:15;;;;;;;8.20;4.75;;;6.20;57.00;;;;;;5041736;28;20033;-76
2022/12/08 11:35:46;;;;;;;10.43;4.82;;;6.20;56.90;;;;;;5043391;28;20033;-75
2022/12/08 11:38:23;;;;;;;8.30;4.95;;;6.20;57.00;;;;;;5043426;28;20065;-75
2022/12/08 11:41:04;;;;;;;7.88;4.13;;;6.20;57.10;;;;;;5041705;28;20066;-75
2022/12/08 11:43:39;;;;;;;10.68;5.00;;;6.20;57.00;;;;;;5044181;28;20033;-75
2022/12/08 11:46:19;;;;;;;7.15;4.40;;;6.20;57.10;;;;;;5043171;28;20444;-75
2022/12/08 11:48:55;;;;;;;7.95;4.53;;;6.20;57.10;;;;;;5043978;28;20128;-76
2022/12/08 11:51:42;;;;;;;7.50;4.55;;;6.20;57.20;;;;;;5043766;28;20086;-75
2022/12/08 11:54:19;;;;;;;9.35;4.43;;;6.20;57.30;;;;;;5042476;28;20047;-75
2022/12/08 11:56:59;;;;;;;8.45;4.63;;;6.20;57.60;;;;;;5041217;28;20043;-74
2022/12/08 11:59:33;;;;;;;8.30;4.82;;;6.20;57.80;;;;;;5039409;28;20063;-74
2022/12/08 12:02:01;;;;;;;9.43;4.70;;;6.20;57.70;;;;;;5043152;28;20072;-73
2022/12/08 12:05:08;;;;;;;7.10;4.53;;;6.10;57.60;;;;;;5043927;28;20037;-72
2022/12/08 12:08:02;;;;;;;10.55;5.32;;;6.10;57.60;;;;;;5044173;28;20106;-73
2022/12/08 12:11:07;;;;;;;7.20;4.40;;;6.10;57.50;;;;;;5049504;28;20033;-73
2022/12/08 12:14:14;;;;;;;10.00;5.00;;;6.10;57.70;;;;;;5044092;28;20387;-74
2022/12/08 12:16:50;;;;;;;17.63;5.60;;;6.10;58.00;;;;;;5048239;28;20041;-74
2022/12/08 12:19:18;;;;;;;;;;;6.10;58.40;;;;;;5047360;28;20051;-74
2022/12/08 12:21:56;;;;;;;10.98;4.63;;;6.10;58.70;;;;;;5044036;28;20063;-74
2022/12/08 12:24:25;;;;;;;11.45;5.43;;;6.10;58.90;;;;;;5043535;28;20028;-74
2022/12/08 12:27:10;;;;;;;12.40;5.22;;;6.10;59.20;;;;;;5047360;28;20071;-71
2022/12/08 12:29:37;;;;;;;14.48;5.38;;;6.00;59.00;;;;;;5049613;28;20494;-73
2022/12/08 12:32:06;;;;;;;10.80;5.32;;;6.10;59.00;;;;;;5043761;28;20049;-73
2022/12/08 12:34:36;;;;;;;18.83;5.68;;;6.00;59.10;;;;;;5048212;28;20503;-73
2022/12/08 12:37:11;;;;;;;9.25;4.78;;;6.00;59.20;;;;;;5048059;28;20068;-73
2022/12/08 12:39:49;;;;;;;11.38;5.10;;;6.00;59.50;;;;;;5029286;28;20064;-72
2022/12/08 12:42:34;;;;;;;9.77;5.05;;;6.00;59.40;;;;;;5048092;28;20061;-72
2022/12/08 12:45:20;;;;;;;10.38;5.07;;;6.00;59.60;;;;;;5048296;28;20040;-72
2022/12/08 12:47:50;;;;;;;12.18;4.97;;;6.00;59.30;;;;;;5041918;28;20047;-74
2022/12/08 12:50:35;;;;;;;11.40;4.43;;;6.00;59.50;;;;;;5036706;28;20455;-72
2022/12/08 12:53:24;;;;;;;11.00;5.20;;;6.00;59.70;;;;;;5049016;28;20091;-73
2022/12/08 12:56:03;;;;;;;15.95;5.85;;;6.00;59.90;;;;;;5047501;28;20071;-72
2022/12/08 12:58:28;;;;;;;10.45;4.95;;;6.00;59.60;;;;;;5052072;28;20037;-73
2022/12/08 13:01:12;;;;;;;13.63;4.72;;;6.00;59.50;;;;;;5050194;28;20036;-72
2022/12/08 13:03:42;;;;;;;9.52;4.68;;;6.00;59.60;;;;;;5051627;28;20040;-72
2022/12/08 13:06:12;;;;;;;12.13;5.13;;;6.00;59.60;;;;;;5046276;28;20406;-71
2022/12/08 13:08:51;;;;;;;8.63;4.95;;;6.00;59.60;;;;;;5045926;28;20041;-72
2022/12/08 13:11:17;;;;;;;10.48;5.03;;;6.00;59.40;;;;;;5046962;28;20048;-72
2022/12/08 13:14:02;;;;;;;9.68;4.97;;;6.00;59.50;;;;;;5045502;28;20032;-71
2022/12/08 13:16:34;;;;;;;7.63;4.57;;;6.00;59.30;;;;;;5046657;28;20090;-73
2022/12/08 13:19:03;;;;;;;9.68;4.95;;;6.00;59.40;;;;;;5046248;28;20155;-72
2022/12/08 13:21:35;;;;;;;8.57;4.68;;;5.90;59.10;;;;;;5045633;28;20040;-72
2022/12/08 13:24:16;;;;;;;7.85;4.30;;;5.90;59.10;;;;;;5046406;28;20530;-71